• Join FlightAware (Why Join?)
  • Login
  • US Flag 
10:30AM EST


 

Airport Tracker/Info


-or-


 

Live Flight TrackerFlight Track Log ✈ VH-IGQ ✈ 27-May-2013 ✈ YMDG / DGE - YSBK / BWU

Flight Track Log - Related Links

Times and Time Zones

All times are in EDT time to prevent confusion due to time zone crossing. See the VH-IGQ flight status page for this flight to view local times or setup timezone preferences in your user account.

Time Position Orientation Groundspeed Altitude Reporting Facility
EDT Latitude Longitude Course Direction KTS MPH feet Rate Location/Type
08:39PM -32.6151 149.6693 127° Southeast 9,000  Level Aus ATC (Calculated)
08:39PM -32.6151 149.6693 127° Southeast 9,000 -780 Level Aus ATC (Calculated)
08:40PM -32.6151 149.6693 127° Southeast 9,000 -840 Level Aus ATC (Calculated)
08:42PM -32.6593 149.7182 137° Southeast  Level FlightAware Approximate
08:42PM -32.6364 149.7024 137° Southeast 125 144 6,900  Level Aus ATC (RADAR)
08:42PM -32.6483 149.7114 148° Southeast 125 144 7,200 720 Climbing Aus ATC (RADAR)
08:43PM -32.6791 149.7369 145° Southeast 117 135 8,100 720 Climbing Aus ATC (RADAR)
08:44PM -32.6909 149.7524 132° Southeast 123 142 8,400 540 Climbing Aus ATC (RADAR)
08:44PM -32.7024 149.7627 143° Southeast 124 143 8,600 600 Climbing Aus ATC (RADAR)
08:45PM -32.7172 149.7794 137° Southeast 125 144 9,000 240 Climbing Aus ATC (RADAR)
08:46PM -32.7363 149.8008 136° Southeast 143 165 8,900 60 Descending Aus ATC (RADAR)
08:46PM -32.7560 149.8199 141° Southeast 152 175 9,100 60 Climbing Aus ATC (RADAR)
08:47PM -32.7797 149.8480 135° Southeast 157 181 9,000 -120 Descending Aus ATC (RADAR)
08:47PM -32.7964 149.8638 142° Southeast 162 186 9,000  Level Aus ATC (RADAR)
08:48PM -32.8322 149.9056 136° Southeast 159 183 9,000  Level Aus ATC (RADAR)
08:49PM -32.8458 149.9207 137° Southeast 158 182 9,000  Level Aus ATC (RADAR)
08:49PM -32.8619 149.9366 140° Southeast 159 183 9,000 60 Level Aus ATC (RADAR)
08:50PM -32.8802 149.9589 134° Southeast 158 182 9,100  Climbing Aus ATC (RADAR)
08:51PM -32.9067 149.9869 139° Southeast 160 184 9,000 -120 Descending Aus ATC (RADAR)
08:51PM -32.9263 150.0075 139° Southeast 157 181 9,000  Level Aus ATC (RADAR)
08:52PM -32.9528 150.0396 135° Southeast 161 185 9,000  Level Aus ATC (RADAR)
08:53PM -32.9675 150.0533 142° Southeast 158 182 9,000  Level Aus ATC (RADAR)
08:54PM -33.0107 150.1036 136° Southeast 159 183 9,000  Level Aus ATC (RADAR)
08:54PM -33.0252 150.1176 141° Southeast 158 182 9,000  Level Aus ATC (RADAR)
08:55PM -33.0430 150.1419 131° Southeast 161 185 9,000  Level Aus ATC (RADAR)
08:56PM -33.0659 150.1652 139° Southeast 161 185 9,000  Level Aus ATC (RADAR)
08:56PM -33.0851 150.1864 137° Southeast 158 182 9,000  Level Aus ATC (RADAR)
08:57PM -33.1088 150.2155 134° Southeast 160 184 9,000  Level Aus ATC (RADAR)
08:57PM -33.1254 150.2314 141° Southeast 162 186 9,000  Level Aus ATC (RADAR)
08:58PM -33.1439 150.2531 136° Southeast 159 183 9,000  Level Aus ATC (RADAR)
08:59PM -33.1772 150.2893 138° Southeast 162 186 9,000  Level Aus ATC (RADAR)
08:59PM -33.1916 150.3052 137° Southeast 157 181 9,000  Level Aus ATC (RADAR)
09:00PM -33.2093 150.3294 131° Southeast 157 181 9,000  Level Aus ATC (RADAR)
09:01PM -33.2290 150.3491 140° Southeast 153 176 9,000  Level Aus ATC (RADAR)
09:01PM -33.2481 150.3705 137° Southeast 155 178 9,000  Level Aus ATC (RADAR)
09:02PM -33.2744 150.4022 135° Southeast 156 180 9,000  Level Aus ATC (RADAR)
09:02PM -33.2892 150.4161 142° Southeast 158 182 9,000  Level Aus ATC (RADAR)
09:03PM -33.3071 150.4385 134° Southeast 158 182 9,000 -60 Level Aus ATC (RADAR)
09:04PM -33.3482 150.4815 139° Southeast 159 183 8,900 -60 Descending Aus ATC (RADAR)
09:05PM -33.3617 150.5003 131° Southeast 157 181 8,900 -120 Level Aus ATC (RADAR)
09:05PM -33.3809 150.5218 137° Southeast 158 182 8,800 -360 Descending Aus ATC (RADAR)
09:06PM -33.4163 150.5611 137° Southeast 156 180 8,300 -480 Descending Aus ATC (RADAR)
09:07PM -33.4352 150.5825 137° Southeast 154 177 8,000 -480 Descending Aus ATC (RADAR)
09:08PM -33.4573 150.6062 138° Southeast 155 178 7,700 -720 Descending Aus ATC (RADAR)
09:08PM -33.4751 150.6305 131° Southeast 160 184 7,100 -840 Descending Aus ATC (RADAR)
09:09PM -33.5193 150.6783 138° Southeast 157 181 6,200 -720 Descending Aus ATC (RADAR)
09:10PM -33.5320 150.6959 131° Southeast 152 175 5,900 -540 Descending Aus ATC (RADAR)
09:10PM -33.5509 150.7164 138° Southeast 152 175 5,700 -660 Descending Aus ATC (RADAR)
09:11PM -33.5749 150.7428 137° Southeast 150 173 5,100 -780 Descending Aus ATC (RADAR)
09:12PM -33.5945 150.7655 136° Southeast 152 175 4,700 -660 Descending Aus ATC (RADAR)
09:13PM -33.6220 150.7884 145° Southeast 151 174 4,200 -780 Descending Aus ATC (RADAR)
09:13PM -33.6373 150.7989 150° Southeast 146 168 3,800 -660 Descending Aus ATC (RADAR)
09:14PM -33.6893 150.8326 152° Southeast 133 153 3,000 -540 Descending Aus ATC (RADAR)
09:15PM -33.6995 150.8390 152° Southeast 135 155 2,900 -360 Descending Aus ATC (RADAR)
09:15PM -33.7186 150.8507 153° Southeast 132 152 2,700 -300 Descending Aus ATC (RADAR)
09:16PM -33.7431 150.8657 153° Southeast 123 142 2,500 -420 Descending Aus ATC (RADAR)
09:17PM -33.7621 150.8767 154° Southeast 127 146 2,200 -420 Descending Aus ATC (RADAR)
09:18PM -33.7928 150.8950 154° Southeast 131 151 1,900 -360 Descending Aus ATC (RADAR)
09:18PM -33.8014 150.8999 155° Southeast 132 152 1,800 -300 Descending Aus ATC (RADAR)
09:19PM -33.8512 150.9239 158° South 135 155 1,500 -300 Descending Aus ATC (RADAR)
09:20PM -33.8692 150.9319 160° South 119 137 1,300 -480 Descending Aus ATC (RADAR)
09:20PM -33.8774 150.9351 162° South 111 128 1,100 -600 Descending Aus ATC (RADAR)
09:21PM -33.8927 150.9419 160° South 98 113 800 -420 Descending Aus ATC (RADAR)
09:21PM -33.9037 150.9577 130° Southeast 83 96 600 -420 Descending Aus ATC (RADAR)
09:22PM -33.9113 150.9705 125° Southeast 78 90 300 -540 Descending Aus ATC (RADAR)